TimeCST,TemperatureF,Dew PointF,Humidity,Sea Level PressureIn,VisibilityMPH,Wind Direction,Wind SpeedMPH,Gust SpeedMPH,PrecipitationIn,Events,Conditions,WindDirDegrees,DateUTC
12:55 AM,35.2,25.0,66,30.22,10.0,NNW,8.1,-,N/A,,Clear,330,2012-03-05 06:55:00
1:55 AM,31.6,25.3,78,30.25,10.0,North,6.9,-,N/A,,Clear,360,2012-03-05 07:55:00
2:55 AM,30.2,24.3,79,30.27,10.0,North,6.9,-,N/A,,Clear,350,2012-03-05 08:55:00
3:55 AM,28.9,23.4,80,30.28,10.0,NW,3.5,-,N/A,,Clear,320,2012-03-05 09:55:00
4:55 AM,25.9,23.2,90,30.30,10.0,Calm,Calm,-,N/A,,Clear,0,2012-03-05 10:55:00
5:55 AM,24.8,23.2,94,30.33,10.0,South,3.5,-,N/A,,Clear,190,2012-03-05 11:55:00
6:55 AM,22.6,21.7,96,30.35,10.0,South,6.9,-,N/A,,Clear,190,2012-03-05 12:55:00
7:55 AM,28.9,26.6,91,30.36,10.0,SE,3.5,-,N/A,,Clear,140,2012-03-05 13:55:00
8:55 AM,34.0,26.6,74,30.39,10.0,SSE,4.6,-,N/A,,Clear,150,2012-03-05 14:55:00
9:55 AM,38.1,25.2,60,30.38,10.0,ESE,6.9,-,N/A,,Clear,120,2012-03-05 15:55:00
10:55 AM,42.1,25.9,53,30.38,10.0,SSE,9.2,-,N/A,,Clear,150,2012-03-05 16:55:00
11:55 AM,45.9,25.3,45,30.35,10.0,South,9.2,-,N/A,,Clear,170,2012-03-05 17:55:00
12:55 PM,49.1,24.6,38,30.31,10.0,SSE,10.4,-,N/A,,Clear,160,2012-03-05 18:55:00
1:55 PM,52.3,22.8,32,30.27,10.0,South,16.1,-,N/A,,Clear,170,2012-03-05 19:55:00
2:55 PM,54.3,22.1,29,30.24,10.0,South,12.7,-,N/A,,Clear,170,2012-03-05 20:55:00
3:55 PM,56.5,23.2,28,30.20,10.0,South,17.3,-,N/A,,Clear,170,2012-03-05 21:55:00
4:55 PM,56.8,22.6,27,30.17,10.0,SSE,16.1,-,N/A,,Clear,160,2012-03-05 22:55:00
5:55 PM,55.2,23.4,29,30.14,10.0,SSE,10.4,-,N/A,,Clear,160,2012-03-05 23:55:00
6:55 PM,51.6,25.2,36,30.12,10.0,SSE,9.2,-,N/A,,Clear,160,2012-03-06 00:55:00
7:55 PM,50.0,26.2,40,30.11,10.0,South,13.8,-,N/A,,Clear,170,2012-03-06 01:55:00
8:55 PM,50.4,25.5,38,30.09,10.0,South,16.1,-,N/A,,Clear,170,2012-03-06 02:55:00
9:55 PM,49.6,24.6,38,30.08,10.0,South,16.1,-,N/A,,Clear,180,2012-03-06 03:55:00
10:55 PM,50.4,25.5,38,30.06,10.0,South,17.3,-,N/A,,Clear,180,2012-03-06 04:55:00
11:55 PM,50.2,27.0,41,30.05,10.0,South,18.4,-,N/A,,Clear,180,2012-03-06 05:55:00